sensor_id;sensor_type;location;lat;lon;timestamp;P1;durP1;ratioP1;P2;durP2;ratioP2
2001;SDS011;1003;48.002;7.788;2024-02-21T00:00:13;4.27;;;2.60;;
2001;SDS011;1003;48.002;7.788;2024-02-21T00:02:42;4.13;;;2.70;;
2001;SDS011;1003;48.002;7.788;2024-02-21T00:05:09;6.20;;;2.33;;
2001;SDS011;1003;48.002;7.788;2024-02-21T00:07:36;4.50;;;2.37;;
2001;SDS011;1003;48.002;7.788;2024-02-21T00:10:06;5.37;;;2.43;;
2001;SDS011;1003;48.002;7.788;2024-02-21T00:12:35;7.00;;;3.10;;
2001;SDS011;1003;48.002;7.788;2024-02-21T00:15:03;4.23;;;2.70;;
2001;SDS011;1003;48.002;7.788;2024-02-21T00:17:34;6.47;;;2.70;;
2001;SDS011;1003;48.002;7.788;2024-02-21T00:20:02;5.10;;;2.70;;
2001;SDS011;1003;48.002;7.788;2024-02-21T00:22:29;5.60;;;2.60;;
2001;SDS011;1003;48.002;7.788;2024-02-21T00:24:58;4.10;;;2.40;;
2001;SDS011;1003;48.002;7.788;2024-02-21T00:27:25;4.87;;;2.70;;
2001;SDS011;1003;48.002;7.788;2024-02-21T00:29:52;5.33;;;2.20;;
2001;SDS011;1003;48.002;7.788;2024-02-21T00:32:24;5.90;;;2.80;;
2001;SDS011;1003;48.002;7.788;2024-02-21T00:34:54;4.80;;;2.50;;
2001;SDS011;1003;48.002;7.788;2024-02-21T00:37:21;5.40;;;2.60;;
2001;SDS011;1003;48.002;7.788;2024-02-21T00:39:48;4.50;;;2.50;;
2001;SDS011;1003;48.002;7.788;2024-02-21T00:42:15;7.60;;;3.00;;
2001;SDS011;1003;48.002;7.788;2024-02-21T00:44:42;6.83;;;2.50;;
2001;SDS011;1003;48.002;7.788;2024-02-21T00:47:10;3.43;;;2.37;;
2001;SDS011;1003;48.002;7.788;2024-02-21T00:49:38;5.80;;;2.77;;
2001;SDS011;1003;48.002;7.788;2024-02-21T00:52:05;3.40;;;2.50;;
2001;SDS011;1003;48.002;7.788;2024-02-21T00:54:32;4.07;;;2.10;;
2001;SDS011;1003;48.002;7.788;2024-02-21T00:56:59;3.80;;;2.10;;
2001;SDS011;1003;48.002;7.788;2024-02-21T00:59:26;4.40;;;2.40;;
2001;SDS011;1003;48.002;7.788;2024-02-21T01:01:54;4.33;;;2.30;;
2001;SDS011;1003;48.002;7.788;2024-02-21T01:04:20;3.37;;;2.20;;
2001;SDS011;1003;48.002;7.788;2024-02-21T01:06:51;4.37;;;2.20;;
2001;SDS011;1003;48.002;7.788;2024-02-21T01:09:18;4.30;;;2.30;;
2001;SDS011;1003;48.002;7.788;2024-02-21T01:11:45;4.60;;;2.40;;
2001;SDS011;1003;48.002;7.788;2024-02-21T01:14:12;6.27;;;2.40;;
2001;SDS011;1003;48.002;7.788;2024-02-21T01:16:39;4.90;;;2.27;;
2001;SDS011;1003;48.002;7.788;2024-02-21T01:19:06;5.37;;;2.33;;
2001;SDS011;1003;48.002;7.788;2024-02-21T01:21:33;5.20;;;2.77;;
2001;SDS011;1003;48.002;7.788;2024-02-21T01:24:01;7.10;;;2.67;;
2001;SDS011;1003;48.002;7.788;2024-02-21T01:26:29;5.03;;;2.43;;
2001;SDS011;1003;48.002;7.788;2024-02-21T01:28:58;5.20;;;2.17;;
2001;SDS011;1003;48.002;7.788;2024-02-21T01:31:26;5.63;;;2.20;;
2001;SDS011;1003;48.002;7.788;2024-02-21T01:33:53;4.70;;;2.20;;
2001;SDS011;1003;48.002;7.788;2024-02-21T01:36:20;3.73;;;2.10;;
2001;SDS011;1003;48.002;7.788;2024-02-21T01:38:48;5.57;;;2.20;;
2001;SDS011;1003;48.002;7.788;2024-02-21T01:41:16;4.70;;;2.20;;
2001;SDS011;1003;48.002;7.788;2024-02-21T01:43:43;4.27;;;2.03;;
2001;SDS011;1003;48.002;7.788;2024-02-21T01:46:10;4.67;;;2.20;;
2001;SDS011;1003;48.002;7.788;2024-02-21T01:48:38;4.57;;;2.30;;
2001;SDS011;1003;48.002;7.788;2024-02-21T01:51:05;5.07;;;2.40;;
2001;SDS011;1003;48.002;7.788;2024-02-21T01:53:33;2.93;;;1.93;;
2001;SDS011;1003;48.002;7.788;2024-02-21T01:56:04;3.80;;;2.33;;
2001;SDS011;1003;48.002;7.788;2024-02-21T01:58:35;4.77;;;2.10;;
2001;SDS011;1003;48.002;7.788;2024-02-21T02:01:05;4.30;;;2.30;;
2001;SDS011;1003;48.002;7.788;2024-02-21T02:03:32;6.10;;;2.40;;
2001;SDS011;1003;48.002;7.788;2024-02-21T02:06:00;3.90;;;2.30;;
2001;SDS011;1003;48.002;7.788;2024-02-21T02:08:27;6.30;;;2.07;;
2001;SDS011;1003;48.002;7.788;2024-02-21T02:10:54;4.53;;;2.30;;
2001;SDS011;1003;48.002;7.788;2024-02-21T02:13:21;5.17;;;2.80;;
2001;SDS011;1003;48.002;7.788;2024-02-21T02:15:49;5.43;;;2.00;;
2001;SDS011;1003;48.002;7.788;2024-02-21T02:18:17;5.07;;;2.20;;
2001;SDS011;1003;48.002;7.788;2024-02-21T02:20:46;4.17;;;1.90;;
2001;SDS011;1003;48.002;7.788;2024-02-21T02:23:18;4.17;;;2.40;;
2001;SDS011;1003;48.002;7.788;2024-02-21T02:25:50;3.27;;;1.80;;
2001;SDS011;1003;48.002;7.788;2024-02-21T02:28:18;3.83;;;2.17;;
2001;SDS011;1003;48.002;7.788;2024-02-21T02:30:45;3.97;;;2.10;;
2001;SDS011;1003;48.002;7.788;2024-02-21T02:33:13;3.40;;;2.20;;
2001;SDS011;1003;48.002;7.788;2024-02-21T02:35:42;5.87;;;2.07;;
2001;SDS011;1003;48.002;7.788;2024-02-21T02:38:09;3.10;;;2.00;;
2001;SDS011;1003;48.002;7.788;2024-02-21T02:40:39;2.97;;;2.00;;
2001;SDS011;1003;48.002;7.788;2024-02-21T02:43:07;5.50;;;2.33;;
2001;SDS011;1003;48.002;7.788;2024-02-21T02:45:34;4.50;;;2.00;;
2001;SDS011;1003;48.002;7.788;2024-02-21T02:48:01;5.50;;;2.30;;
2001;SDS011;1003;48.002;7.788;2024-02-21T02:50:29;3.43;;;2.10;;
2001;SDS011;1003;48.002;7.788;2024-02-21T02:52:56;4.77;;;2.63;;
2001;SDS011;1003;48.002;7.788;2024-02-21T02:55:23;4.23;;;2.53;;
2001;SDS011;1003;48.002;7.788;2024-02-21T02:57:52;4.23;;;2.30;;
2001;SDS011;1003;48.002;7.788;2024-02-21T03:00:21;7.83;;;2.50;;
2001;SDS011;1003;48.002;7.788;2024-02-21T03:02:48;5.40;;;2.20;;
2001;SDS011;1003;48.002;7.788;2024-02-21T03:05:16;2.67;;;2.03;;
2001;SDS011;1003;48.002;7.788;2024-02-21T03:07:45;5.10;;;2.23;;
2001;SDS011;1003;48.002;7.788;2024-02-21T03:10:13;4.73;;;2.27;;
2001;SDS011;1003;48.002;7.788;2024-02-21T03:12:41;6.77;;;2.40;;
2001;SDS011;1003;48.002;7.788;2024-02-21T03:15:09;4.13;;;2.47;;
2001;SDS011;1003;48.002;7.788;2024-02-21T03:17:37;4.03;;;2.27;;
2001;SDS011;1003;48.002;7.788;2024-02-21T03:20:04;5.10;;;2.40;;
2001;SDS011;1003;48.002;7.788;2024-02-21T03:22:34;4.93;;;2.53;;
2001;SDS011;1003;48.002;7.788;2024-02-21T03:25:01;5.50;;;2.63;;
2001;SDS011;1003;48.002;7.788;2024-02-21T03:27:28;3.07;;;2.20;;
2001;SDS011;1003;48.002;7.788;2024-02-21T03:29:56;5.17;;;2.53;;
2001;SDS011;1003;48.002;7.788;2024-02-21T03:32:24;4.30;;;2.40;;
2001;SDS011;1003;48.002;7.788;2024-02-21T03:34:52;4.20;;;2.40;;
2001;SDS011;1003;48.002;7.788;2024-02-21T03:37:20;3.33;;;2.17;;
2001;SDS011;1003;48.002;7.788;2024-02-21T03:39:47;2.87;;;2.50;;
2001;SDS011;1003;48.002;7.788;2024-02-21T03:42:14;3.03;;;2.20;;
2001;SDS011;1003;48.002;7.788;2024-02-21T03:44:41;5.30;;;2.50;;
2001;SDS011;1003;48.002;7.788;2024-02-21T03:47:08;5.23;;;2.40;;
2001;SDS011;1003;48.002;7.788;2024-02-21T03:49:38;2.93;;;2.00;;
2001;SDS011;1003;48.002;7.788;2024-02-21T03:52:05;4.27;;;2.37;;
2001;SDS011;1003;48.002;7.788;2024-02-21T03:54:33;3.37;;;2.27;;
2001;SDS011;1003;48.002;7.788;2024-02-21T03:57:00;4.10;;;2.70;;
2001;SDS011;1003;48.002;7.788;2024-02-21T03:59:27;2.63;;;1.97;;
2001;SDS011;1003;48.002;7.788;2024-02-21T04:01:54;3.70;;;2.00;;
2001;SDS011;1003;48.002;7.788;2024-02-21T04:04:21;3.97;;;2.33;;
2001;SDS011;1003;48.002;7.788;2024-02-21T04:06:50;3.70;;;1.97;;
2001;SDS011;1003;48.002;7.788;2024-02-21T04:09:17;2.67;;;1.70;;
2001;SDS011;1003;48.002;7.788;2024-02-21T04:11:45;2.53;;;1.90;;
2001;SDS011;1003;48.002;7.788;2024-02-21T04:14:12;4.13;;;2.50;;
2001;SDS011;1003;48.002;7.788;2024-02-21T04:16:39;5.33;;;2.20;;
2001;SDS011;1003;48.002;7.788;2024-02-21T04:19:06;3.90;;;2.13;;
2001;SDS011;1003;48.002;7.788;2024-02-21T04:21:33;7.07;;;2.70;;
2001;SDS011;1003;48.002;7.788;2024-02-21T04:24:02;3.27;;;2.23;;
2001;SDS011;1003;48.002;7.788;2024-02-21T04:26:30;3.93;;;2.30;;
2001;SDS011;1003;48.002;7.788;2024-02-21T04:28:57;5.60;;;2.60;;
2001;SDS011;1003;48.002;7.788;2024-02-21T04:31:24;4.10;;;1.97;;
2001;SDS011;1003;48.002;7.788;2024-02-21T04:33:51;3.40;;;2.07;;
2001;SDS011;1003;48.002;7.788;2024-02-21T04:36:18;4.37;;;2.00;;
2001;SDS011;1003;48.002;7.788;2024-02-21T04:38:45;5.40;;;2.33;;
2001;SDS011;1003;48.002;7.788;2024-02-21T04:41:14;5.80;;;2.40;;
2001;SDS011;1003;48.002;7.788;2024-02-21T04:43:41;2.80;;;1.97;;
2001;SDS011;1003;48.002;7.788;2024-02-21T04:46:08;3.53;;;1.97;;
2001;SDS011;1003;48.002;7.788;2024-02-21T04:48:35;3.77;;;2.10;;
2001;SDS011;1003;48.002;7.788;2024-02-21T04:51:02;2.80;;;1.97;;
2001;SDS011;1003;48.002;7.788;2024-02-21T04:53:30;4.00;;;2.27;;
2001;SDS011;1003;48.002;7.788;2024-02-21T04:55:57;3.97;;;1.90;;
2001;SDS011;1003;48.002;7.788;2024-02-21T04:58:25;3.90;;;2.17;;
2001;SDS011;1003;48.002;7.788;2024-02-21T05:00:53;6.33;;;2.30;;
2001;SDS011;1003;48.002;7.788;2024-02-21T05:03:21;5.27;;;2.10;;
2001;SDS011;1003;48.002;7.788;2024-02-21T05:05:48;4.60;;;2.30;;
2001;SDS011;1003;48.002;7.788;2024-02-21T05:08:15;4.03;;;2.20;;
2001;SDS011;1003;48.002;7.788;2024-02-21T05:10:42;3.63;;;2.20;;
2001;SDS011;1003;48.002;7.788;2024-02-21T05:13:09;4.77;;;2.40;;
2001;SDS011;1003;48.002;7.788;2024-02-21T05:15:38;5.40;;;2.30;;
2001;SDS011;1003;48.002;7.788;2024-02-21T05:18:05;4.83;;;2.27;;
2001;SDS011;1003;48.002;7.788;2024-02-21T05:20:32;4.13;;;2.10;;
2001;SDS011;1003;48.002;7.788;2024-02-21T05:22:59;4.17;;;2.20;;
2001;SDS011;1003;48.002;7.788;2024-02-21T05:25:28;3.50;;;2.20;;
2001;SDS011;1003;48.002;7.788;2024-02-21T05:27:55;5.03;;;2.00;;
2001;SDS011;1003;48.002;7.788;2024-02-21T05:30:26;3.07;;;1.80;;
2001;SDS011;1003;48.002;7.788;2024-02-21T05:32:55;4.73;;;2.43;;
2001;SDS011;1003;48.002;7.788;2024-02-21T05:35:24;4.87;;;2.13;;
2001;SDS011;1003;48.002;7.788;2024-02-21T05:37:53;3.60;;;1.93;;
2001;SDS011;1003;48.002;7.788;2024-02-21T05:40:20;4.63;;;2.00;;
2001;SDS011;1003;48.002;7.788;2024-02-21T05:42:47;3.57;;;2.13;;
2001;SDS011;1003;48.002;7.788;2024-02-21T05:45:16;3.47;;;1.90;;
2001;SDS011;1003;48.002;7.788;2024-02-21T05:47:43;6.53;;;2.10;;
2001;SDS011;1003;48.002;7.788;2024-02-21T05:50:12;3.63;;;2.10;;
2001;SDS011;1003;48.002;7.788;2024-02-21T05:52:39;5.07;;;2.17;;
2001;SDS011;1003;48.002;7.788;2024-02-21T05:55:06;2.87;;;2.07;;
2001;SDS011;1003;48.002;7.788;2024-02-21T05:57:33;3.70;;;2.13;;
2001;SDS011;1003;48.002;7.788;2024-02-21T06:00:02;4.87;;;2.00;;
2001;SDS011;1003;48.002;7.788;2024-02-21T06:02:31;4.90;;;2.33;;
2001;SDS011;1003;48.002;7.788;2024-02-21T06:04:58;4.20;;;2.00;;
2001;SDS011;1003;48.002;7.788;2024-02-21T06:07:27;3.27;;;2.13;;
2001;SDS011;1003;48.002;7.788;2024-02-21T06:09:54;4.10;;;2.10;;
2001;SDS011;1003;48.002;7.788;2024-02-21T06:12:21;3.00;;;2.00;;
2001;SDS011;1003;48.002;7.788;2024-02-21T06:14:48;4.23;;;2.20;;
2001;SDS011;1003;48.002;7.788;2024-02-21T06:17:15;3.73;;;2.10;;
2001;SDS011;1003;48.002;7.788;2024-02-21T06:19:42;6.20;;;2.43;;
2001;SDS011;1003;48.002;7.788;2024-02-21T06:22:10;4.17;;;2.10;;
2001;SDS011;1003;48.002;7.788;2024-02-21T06:24:39;3.13;;;2.10;;
2001;SDS011;1003;48.002;7.788;2024-02-21T06:27:06;3.10;;;2.07;;
2001;SDS011;1003;48.002;7.788;2024-02-21T06:29:33;4.23;;;2.00;;
2001;SDS011;1003;48.002;7.788;2024-02-21T06:32:01;6.43;;;2.17;;
2001;SDS011;1003;48.002;7.788;2024-02-21T06:34:29;3.23;;;2.10;;
2001;SDS011;1003;48.002;7.788;2024-02-21T06:36:56;5.43;;;2.93;;
2001;SDS011;1003;48.002;7.788;2024-02-21T06:39:23;6.50;;;2.57;;
2001;SDS011;1003;48.002;7.788;2024-02-21T06:41:51;6.07;;;3.03;;
2001;SDS011;1003;48.002;7.788;2024-02-21T06:44:19;4.60;;;2.70;;
2001;SDS011;1003;48.002;7.788;2024-02-21T06:46:47;4.87;;;2.03;;
2001;SDS011;1003;48.002;7.788;2024-02-21T06:49:14;4.53;;;2.30;;
2001;SDS011;1003;48.002;7.788;2024-02-21T06:51:42;3.87;;;2.00;;
2001;SDS011;1003;48.002;7.788;2024-02-21T06:54:09;3.97;;;2.10;;
2001;SDS011;1003;48.002;7.788;2024-02-21T06:56:37;3.73;;;2.20;;
2001;SDS011;1003;48.002;7.788;2024-02-21T06:59:07;4.87;;;2.03;;
2001;SDS011;1003;48.002;7.788;2024-02-21T07:01:35;2.50;;;1.93;;
2001;SDS011;1003;48.002;7.788;2024-02-21T07:04:02;3.03;;;2.13;;
2001;SDS011;1003;48.002;7.788;2024-02-21T07:06:29;2.97;;;2.17;;
2001;SDS011;1003;48.002;7.788;2024-02-21T07:08:56;3.53;;;2.20;;
2001;SDS011;1003;48.002;7.788;2024-02-21T07:11:23;4.63;;;2.30;;
2001;SDS011;1003;48.002;7.788;2024-02-21T07:13:50;3.57;;;2.00;;
2001;SDS011;1003;48.002;7.788;2024-02-21T07:16:19;3.63;;;2.00;;
2001;SDS011;1003;48.002;7.788;2024-02-21T07:18:46;4.73;;;2.03;;
2001;SDS011;1003;48.002;7.788;2024-02-21T07:21:13;3.63;;;1.97;;
2001;SDS011;1003;48.002;7.788;2024-02-21T07:23:40;4.80;;;2.23;;
2001;SDS011;1003;48.002;7.788;2024-02-21T07:26:08;4.73;;;1.90;;
2001;SDS011;1003;48.002;7.788;2024-02-21T07:28:35;4.03;;;2.03;;
2001;SDS011;1003;48.002;7.788;2024-02-21T07:31:02;2.43;;;1.70;;
2001;SDS011;1003;48.002;7.788;2024-02-21T07:33:31;3.10;;;1.87;;
2001;SDS011;1003;48.002;7.788;2024-02-21T07:35:58;4.57;;;1.90;;
2001;SDS011;1003;48.002;7.788;2024-02-21T07:38:25;2.67;;;1.80;;
2001;SDS011;1003;48.002;7.788;2024-02-21T07:40:52;2.47;;;1.73;;
2001;SDS011;1003;48.002;7.788;2024-02-21T07:43:18;2.17;;;1.80;;
2001;SDS011;1003;48.002;7.788;2024-02-21T07:45:47;6.50;;;2.17;;
2001;SDS011;1003;48.002;7.788;2024-02-21T07:48:14;6.10;;;2.37;;
2001;SDS011;1003;48.002;7.788;2024-02-21T07:50:42;4.30;;;2.17;;
2001;SDS011;1003;48.002;7.788;2024-02-21T07:53:09;4.30;;;2.40;;
2001;SDS011;1003;48.002;7.788;2024-02-21T07:55:36;5.83;;;2.20;;
2001;SDS011;1003;48.002;7.788;2024-02-21T07:58:03;3.00;;;2.20;;
2001;SDS011;1003;48.002;7.788;2024-02-21T08:00:30;3.13;;;2.10;;
2001;SDS011;1003;48.002;7.788;2024-02-21T08:02:57;3.70;;;1.80;;
2001;SDS011;1003;48.002;7.788;2024-02-21T08:05:24;3.30;;;1.87;;
2001;SDS011;1003;48.002;7.788;2024-02-21T08:07:52;7.33;;;2.80;;
2001;SDS011;1003;48.002;7.788;2024-02-21T08:10:19;4.93;;;3.20;;
2001;SDS011;1003;48.002;7.788;2024-02-21T08:12:46;5.70;;;3.23;;
2001;SDS011;1003;48.002;7.788;2024-02-21T08:15:13;11.17;;;5.60;;
2001;SDS011;1003;48.002;7.788;2024-02-21T08:17:40;6.23;;;3.47;;
2001;SDS011;1003;48.002;7.788;2024-02-21T08:20:08;3.97;;;2.30;;
2001;SDS011;1003;48.002;7.788;2024-02-21T08:22:37;4.00;;;2.53;;
2001;SDS011;1003;48.002;7.788;2024-02-21T08:25:05;5.70;;;2.47;;
2001;SDS011;1003;48.002;7.788;2024-02-21T08:27:33;3.63;;;2.37;;
2001;SDS011;1003;48.002;7.788;2024-02-21T08:29:59;4.47;;;2.23;;
2001;SDS011;1003;48.002;7.788;2024-02-21T08:32:26;5.70;;;2.20;;
2001;SDS011;1003;48.002;7.788;2024-02-21T08:34:55;4.97;;;2.50;;
2001;SDS011;1003;48.002;7.788;2024-02-21T08:37:22;5.07;;;3.07;;
2001;SDS011;1003;48.002;7.788;2024-02-21T08:39:49;7.40;;;2.93;;
2001;SDS011;1003;48.002;7.788;2024-02-21T08:42:17;6.87;;;3.13;;
2001;SDS011;1003;48.002;7.788;2024-02-21T08:44:44;6.30;;;3.43;;
2001;SDS011;1003;48.002;7.788;2024-02-21T08:47:11;6.37;;;3.20;;
2001;SDS011;1003;48.002;7.788;2024-02-21T08:49:38;4.70;;;2.83;;
2001;SDS011;1003;48.002;7.788;2024-02-21T08:52:05;6.03;;;2.97;;
2001;SDS011;1003;48.002;7.788;2024-02-21T08:54:32;7.67;;;3.27;;
2001;SDS011;1003;48.002;7.788;2024-02-21T08:56:59;5.37;;;3.00;;
2001;SDS011;1003;48.002;7.788;2024-02-21T08:59:29;7.10;;;3.40;;
2001;SDS011;1003;48.002;7.788;2024-02-21T09:01:57;5.10;;;3.40;;
2001;SDS011;1003;48.002;7.788;2024-02-21T09:04:24;6.73;;;3.23;;
2001;SDS011;1003;48.002;7.788;2024-02-21T09:06:50;8.90;;;3.40;;
2001;SDS011;1003;48.002;7.788;2024-02-21T09:09:18;6.30;;;3.10;;
2001;SDS011;1003;48.002;7.788;2024-02-21T09:11:45;5.17;;;3.30;;
2001;SDS011;1003;48.002;7.788;2024-02-21T09:14:12;6.90;;;3.67;;
2001;SDS011;1003;48.002;7.788;2024-02-21T09:16:40;4.07;;;2.63;;
2001;SDS011;1003;48.002;7.788;2024-02-21T09:19:07;3.93;;;2.50;;
2001;SDS011;1003;48.002;7.788;2024-02-21T09:21:36;3.07;;;2.10;;
2001;SDS011;1003;48.002;7.788;2024-02-21T09:24:03;5.10;;;2.07;;
2001;SDS011;1003;48.002;7.788;2024-02-21T09:26:31;3.20;;;1.73;;
2001;SDS011;1003;48.002;7.788;2024-02-21T09:28:58;4.63;;;1.87;;
2001;SDS011;1003;48.002;7.788;2024-02-21T09:31:25;3.67;;;2.13;;
2001;SDS011;1003;48.002;7.788;2024-02-21T09:33:54;4.10;;;2.07;;
2001;SDS011;1003;48.002;7.788;2024-02-21T09:36:21;4.33;;;2.00;;
2001;SDS011;1003;48.002;7.788;2024-02-21T09:38:48;3.93;;;1.80;;
2001;SDS011;1003;48.002;7.788;2024-02-21T09:41:15;5.10;;;2.20;;
2001;SDS011;1003;48.002;7.788;2024-02-21T09:43:43;5.87;;;2.50;;
2001;SDS011;1003;48.002;7.788;2024-02-21T09:46:13;5.13;;;2.20;;
2001;SDS011;1003;48.002;7.788;2024-02-21T09:48:48;3.07;;;1.87;;
2001;SDS011;1003;48.002;7.788;2024-02-21T09:51:29;3.23;;;2.00;;
2001;SDS011;1003;48.002;7.788;2024-02-21T09:54:00;3.03;;;1.90;;
2001;SDS011;1003;48.002;7.788;2024-02-21T09:56:30;5.13;;;2.30;;
2001;SDS011;1003;48.002;7.788;2024-02-21T09:58:57;5.53;;;2.57;;
2001;SDS011;1003;48.002;7.788;2024-02-21T10:01:24;5.87;;;2.30;;
2001;SDS011;1003;48.002;7.788;2024-02-21T10:03:51;4.23;;;2.13;;
2001;SDS011;1003;48.002;7.788;2024-02-21T10:06:20;4.23;;;1.93;;
2001;SDS011;1003;48.002;7.788;2024-02-21T10:08:51;6.30;;;2.70;;
2001;SDS011;1003;48.002;7.788;2024-02-21T10:11:21;3.80;;;2.30;;
2001;SDS011;1003;48.002;7.788;2024-02-21T10:13:49;7.33;;;2.43;;
2001;SDS011;1003;48.002;7.788;2024-02-21T10:16:16;3.10;;;2.20;;
2001;SDS011;1003;48.002;7.788;2024-02-21T10:18:43;4.73;;;2.37;;
2001;SDS011;1003;48.002;7.788;2024-02-21T10:21:10;5.53;;;2.27;;
2001;SDS011;1003;48.002;7.788;2024-02-21T10:23:42;4.10;;;2.27;;
2001;SDS011;1003;48.002;7.788;2024-02-21T10:26:11;4.47;;;2.17;;
2001;SDS011;1003;48.002;7.788;2024-02-21T10:28:38;2.30;;;1.87;;
2001;SDS011;1003;48.002;7.788;2024-02-21T10:31:10;2.87;;;1.90;;
2001;SDS011;1003;48.002;7.788;2024-02-21T10:33:53;4.17;;;1.90;;
2001;SDS011;1003;48.002;7.788;2024-02-21T10:36:21;3.80;;;2.10;;
2001;SDS011;1003;48.002;7.788;2024-02-21T10:38:50;3.67;;;2.00;;
2001;SDS011;1003;48.002;7.788;2024-02-21T10:41:19;3.03;;;1.80;;
2001;SDS011;1003;48.002;7.788;2024-02-21T10:43:49;2.20;;;1.50;;
2001;SDS011;1003;48.002;7.788;2024-02-21T10:46:19;3.03;;;1.60;;
2001;SDS011;1003;48.002;7.788;2024-02-21T10:48:50;2.47;;;1.80;;
2001;SDS011;1003;48.002;7.788;2024-02-21T10:51:33;3.00;;;1.70;;
2001;SDS011;1003;48.002;7.788;2024-02-21T10:54:06;3.97;;;1.90;;
2001;SDS011;1003;48.002;7.788;2024-02-21T10:56:56;3.77;;;2.30;;
2001;SDS011;1003;48.002;7.788;2024-02-21T10:59:27;4.67;;;2.13;;
2001;SDS011;1003;48.002;7.788;2024-02-21T11:01:55;4.23;;;2.10;;
2001;SDS011;1003;48.002;7.788;2024-02-21T11:04:22;4.77;;;2.20;;
2001;SDS011;1003;48.002;7.788;2024-02-21T11:06:50;4.00;;;2.10;;
2001;SDS011;1003;48.002;7.788;2024-02-21T11:09:19;5.30;;;2.57;;
2001;SDS011;1003;48.002;7.788;2024-02-21T11:11:57;4.93;;;2.30;;
2001;SDS011;1003;48.002;7.788;2024-02-21T11:14:26;4.57;;;2.30;;
2001;SDS011;1003;48.002;7.788;2024-02-21T11:16:54;5.20;;;2.63;;
2001;SDS011;1003;48.002;7.788;2024-02-21T11:19:22;4.97;;;2.60;;
2001;SDS011;1003;48.002;7.788;2024-02-21T11:21:53;5.73;;;2.40;;
2001;SDS011;1003;48.002;7.788;2024-02-21T11:24:29;4.50;;;2.13;;
2001;SDS011;1003;48.002;7.788;2024-02-21T11:27:07;7.30;;;2.70;;
2001;SDS011;1003;48.002;7.788;2024-02-21T11:29:39;5.80;;;2.27;;
2001;SDS011;1003;48.002;7.788;2024-02-21T11:32:09;3.93;;;2.30;;
2001;SDS011;1003;48.002;7.788;2024-02-21T11:34:37;3.43;;;2.10;;
2001;SDS011;1003;48.002;7.788;2024-02-21T11:37:12;4.00;;;2.30;;
2001;SDS011;1003;48.002;7.788;2024-02-21T11:39:43;5.50;;;2.30;;
2001;SDS011;1003;48.002;7.788;2024-02-21T11:42:10;5.27;;;2.40;;
2001;SDS011;1003;48.002;7.788;2024-02-21T11:44:38;3.57;;;2.10;;
2001;SDS011;1003;48.002;7.788;2024-02-21T11:47:07;3.30;;;2.23;;
2001;SDS011;1003;48.002;7.788;2024-02-21T11:49:36;6.47;;;2.20;;
2001;SDS011;1003;48.002;7.788;2024-02-21T11:52:04;5.00;;;2.10;;
2001;SDS011;1003;48.002;7.788;2024-02-21T11:54:32;3.30;;;2.00;;
2001;SDS011;1003;48.002;7.788;2024-02-21T11:57:01;4.83;;;2.10;;
2001;SDS011;1003;48.002;7.788;2024-02-21T11:59:30;3.03;;;1.87;;
2001;SDS011;1003;48.002;7.788;2024-02-21T12:01:58;5.10;;;1.83;;
2001;SDS011;1003;48.002;7.788;2024-02-21T12:04:26;4.30;;;1.73;;
2001;SDS011;1003;48.002;7.788;2024-02-21T12:06:53;2.33;;;1.30;;
2001;SDS011;1003;48.002;7.788;2024-02-21T12:09:22;1.03;;;0.90;;
2001;SDS011;1003;48.002;7.788;2024-02-21T12:11:56;1.87;;;1.00;;
2001;SDS011;1003;48.002;7.788;2024-02-21T12:14:27;1.60;;;0.90;;
2001;SDS011;1003;48.002;7.788;2024-02-21T12:16:56;1.60;;;0.87;;
2001;SDS011;1003;48.002;7.788;2024-02-21T12:19:23;1.90;;;0.83;;
2001;SDS011;1003;48.002;7.788;2024-02-21T12:21:50;0.90;;;0.70;;
2001;SDS011;1003;48.002;7.788;2024-02-21T12:24:17;1.37;;;0.63;;
2001;SDS011;1003;48.002;7.788;2024-02-21T12:26:49;0.97;;;0.63;;
2001;SDS011;1003;48.002;7.788;2024-02-21T12:29:17;1.57;;;0.70;;
2001;SDS011;1003;48.002;7.788;2024-02-21T12:31:45;0.60;;;0.60;;
2001;SDS011;1003;48.002;7.788;2024-02-21T12:34:13;1.90;;;0.77;;
2001;SDS011;1003;48.002;7.788;2024-02-21T12:36:41;0.63;;;0.63;;
2001;SDS011;1003;48.002;7.788;2024-02-21T12:39:10;0.87;;;0.87;;
2001;SDS011;1003;48.002;7.788;2024-02-21T12:41:37;0.80;;;0.57;;
2001;SDS011;1003;48.002;7.788;2024-02-21T12:44:05;1.27;;;0.73;;
2001;SDS011;1003;48.002;7.788;2024-02-21T12:46:33;1.37;;;0.87;;
2001;SDS011;1003;48.002;7.788;2024-02-21T12:49:02;1.17;;;0.70;;
2001;SDS011;1003;48.002;7.788;2024-02-21T12:51:29;1.00;;;0.80;;
2001;SDS011;1003;48.002;7.788;2024-02-21T12:53:56;1.07;;;0.90;;
2001;SDS011;1003;48.002;7.788;2024-02-21T12:56:24;0.77;;;0.60;;
2001;SDS011;1003;48.002;7.788;2024-02-21T12:58:52;0.90;;;0.70;;
2001;SDS011;1003;48.002;7.788;2024-02-21T13:01:19;0.70;;;0.70;;
2001;SDS011;1003;48.002;7.788;2024-02-21T13:03:46;1.40;;;0.80;;
2001;SDS011;1003;48.002;7.788;2024-02-21T13:06:15;1.07;;;0.90;;
2001;SDS011;1003;48.002;7.788;2024-02-21T13:08:44;2.00;;;0.80;;
2001;SDS011;1003;48.002;7.788;2024-02-21T13:11:11;1.77;;;0.70;;
2001;SDS011;1003;48.002;7.788;2024-02-21T13:13:39;0.97;;;0.90;;
2001;SDS011;1003;48.002;7.788;2024-02-21T13:16:06;1.27;;;1.10;;
2001;SDS011;1003;48.002;7.788;2024-02-21T13:18:34;1.10;;;0.80;;
2001;SDS011;1003;48.002;7.788;2024-02-21T13:21:03;1.30;;;0.90;;
2001;SDS011;1003;48.002;7.788;2024-02-21T13:23:31;0.87;;;0.87;;
2001;SDS011;1003;48.002;7.788;2024-02-21T13:25:59;2.17;;;0.90;;
2001;SDS011;1003;48.002;7.788;2024-02-21T13:28:26;0.83;;;0.83;;
2001;SDS011;1003;48.002;7.788;2024-02-21T13:30:53;1.30;;;0.80;;
2001;SDS011;1003;48.002;7.788;2024-02-21T13:33:19;1.90;;;0.87;;
2001;SDS011;1003;48.002;7.788;2024-02-21T13:35:46;0.97;;;0.80;;
2001;SDS011;1003;48.002;7.788;2024-02-21T13:38:13;2.13;;;1.17;;
2001;SDS011;1003;48.002;7.788;2024-02-21T13:40:42;1.87;;;1.17;;
2001;SDS011;1003;48.002;7.788;2024-02-21T13:43:09;1.77;;;1.30;;
2001;SDS011;1003;48.002;7.788;2024-02-21T13:45:37;1.43;;;1.10;;
2001;SDS011;1003;48.002;7.788;2024-02-21T13:48:06;1.13;;;1.03;;
2001;SDS011;1003;48.002;7.788;2024-02-21T13:50:37;2.30;;;1.63;;
2001;SDS011;1003;48.002;7.788;2024-02-21T13:53:07;1.40;;;1.30;;
2001;SDS011;1003;48.002;7.788;2024-02-21T13:55:35;1.50;;;1.13;;
2001;SDS011;1003;48.002;7.788;2024-02-21T13:58:03;2.73;;;1.37;;
2001;SDS011;1003;48.002;7.788;2024-02-21T14:00:30;1.67;;;1.47;;
2001;SDS011;1003;48.002;7.788;2024-02-21T14:02:59;2.07;;;1.23;;
2001;SDS011;1003;48.002;7.788;2024-02-21T14:05:26;3.23;;;1.40;;
2001;SDS011;1003;48.002;7.788;2024-02-21T14:07:53;2.23;;;1.67;;
2001;SDS011;1003;48.002;7.788;2024-02-21T14:10:20;3.57;;;1.63;;
2001;SDS011;1003;48.002;7.788;2024-02-21T14:12:47;2.20;;;1.63;;
2001;SDS011;1003;48.002;7.788;2024-02-21T14:15:16;2.50;;;1.70;;
2001;SDS011;1003;48.002;7.788;2024-02-21T14:17:43;2.93;;;1.60;;
2001;SDS011;1003;48.002;7.788;2024-02-21T14:20:10;3.13;;;1.80;;
2001;SDS011;1003;48.002;7.788;2024-02-21T14:22:39;2.63;;;2.00;;
2001;SDS011;1003;48.002;7.788;2024-02-21T14:25:08;2.27;;;1.73;;
2001;SDS011;1003;48.002;7.788;2024-02-21T14:27:35;3.70;;;1.83;;
2001;SDS011;1003;48.002;7.788;2024-02-21T14:30:02;2.47;;;1.60;;
2001;SDS011;1003;48.002;7.788;2024-02-21T14:32:32;3.73;;;1.80;;
2001;SDS011;1003;48.002;7.788;2024-02-21T14:34:59;2.60;;;1.80;;
2001;SDS011;1003;48.002;7.788;2024-02-21T14:37:26;2.37;;;1.73;;
2001;SDS011;1003;48.002;7.788;2024-02-21T14:39:53;2.33;;;1.70;;
2001;SDS011;1003;48.002;7.788;2024-02-21T14:42:20;3.87;;;1.90;;
2001;SDS011;1003;48.002;7.788;2024-02-21T14:44:46;3.53;;;1.97;;
2001;SDS011;1003;48.002;7.788;2024-02-21T14:47:13;2.23;;;1.67;;
2001;SDS011;1003;48.002;7.788;2024-02-21T14:49:42;4.00;;;1.73;;
2001;SDS011;1003;48.002;7.788;2024-02-21T14:52:08;4.80;;;2.00;;
2001;SDS011;1003;48.002;7.788;2024-02-21T14:54:36;4.17;;;1.97;;
2001;SDS011;1003;48.002;7.788;2024-02-21T14:57:06;2.63;;;1.67;;
2001;SDS011;1003;48.002;7.788;2024-02-21T14:59:33;4.97;;;2.00;;
2001;SDS011;1003;48.002;7.788;2024-02-21T15:02:00;2.30;;;1.80;;
2001;SDS011;1003;48.002;7.788;2024-02-21T15:04:26;2.17;;;1.30;;
2001;SDS011;1003;48.002;7.788;2024-02-21T15:06:55;3.37;;;1.60;;
2001;SDS011;1003;48.002;7.788;2024-02-21T15:09:22;2.93;;;1.50;;
2001;SDS011;1003;48.002;7.788;2024-02-21T15:11:48;2.20;;;1.47;;
2001;SDS011;1003;48.002;7.788;2024-02-21T15:14:15;1.07;;;0.97;;
2001;SDS011;1003;48.002;7.788;2024-02-21T15:16:42;1.00;;;0.90;;
2001;SDS011;1003;48.002;7.788;2024-02-21T15:19:09;1.80;;;1.00;;